Bedford, MA

1:36 PM EDT on September 04, 2015 (GMT -0400)
Rte 62 and US3 | | Change Station
CLOSE
Current Station
Personal Weather Station
Location: Bedford, MA
Elevation: 141 ft
Nearby Weather Stations

Elev 141 ft 42.50 °N, 71.25 °W | Updated 0 second ago

Mostly Cloudy
Mostly Cloudy
70.6 °F
Feels Like 73 °F
N
0.0
Wind Variable Wind from ESE
Gusts 6.0 mph

Today
High -- | Low -- °F
--% Chance of Precip.
Yesterday
High -- | Low -- °F
Precip. -- in
6:12 AM 7:14 PM
Waning Gibbous, 57% visible
Pressure 30.22 in
Visibility 10.0 miles
Clouds Mostly Cloudy 4500 ft
Heat Index 73 °F
Dew Point 62 °F
Humidity 75%
Rainfall 0.00 in
Snow Depth Not available.
UV 5 out of 12
Pollen 8.50 out of 12
Air Quality Not available.
Flu Activity Not available.
METAR KBED 041656Z 07009G15KT 10SM BKN045 21/14 A3019 RMK AO2 SLP234 T02110139
Pressure 30.22 in
Visibility 10.0 miles
Clouds Mostly Cloudy 4500 ft
Heat Index 73 °F
Dew Point 62 °F
Humidity 75%
Rainfall 0.00 in
Snow Depth Not available.
UV 5 out of 12
Pollen 8.50 out of 12
Air Quality Not available.
Flu Activity Not available.
METAR KBED 041656Z 07009G15KT 10SM BKN045 21/14 A3019 RMK AO2 SLP234 T02110139

10-Day Weather Forecast

×

Almanac

Astronomy

Sep. 04, 2015 Rise Set
Actual Time
Civil Twilight
Nautical Twilight
Astronomical Twilight
Moon
Length of Visible Light
Length of Day
Tomorrow will be .
, % of the Moon is Illuminated

Today's Extremes

State Highs State Lows

Community

WunderPhotos

Upload Photos

1,852,244 photos uploaded!

WunderBlogs® & News

Nearby

Air Quality

  Air Quality AQ Index Pollutant
Not available.

Snow Depth

Station Depth Elevation

Earthquake Activity

City Distance Mag. Time & Date
Minimum magnitude displayed is 2.5.

Coastal Water Temperatures

Place Temperature

Stations

Nearby Weather Stations

Station Location Temp. Windchill Dew Point Humidity Wind Precip. Elev Updated Type